Time;durP1;ratioP1;P1;durP2;ratioP2;P2;SDS_P1;SDS_P2;PMS_P1;PMS_P2;Temp;Humidity;BMP_temperature;BMP_pressure;BME280_temperature;BME280_humidity;BME280_pressure;Samples;Min_cycle;Max_cycle;Signal;HPM_P1;HPM_P2
2022/03/22 00:02:23;;;;;;;;;85.67;63.67;;;;;1.00;46.39;101569.78;6314905;20;3666908;-48
2022/03/22 00:04:53;;;;;;;;;81.00;57.33;;;;;1.09;45.96;101563.69;6313727;20;2891911;-50
2022/03/22 00:07:22;;;;;;;;;78.33;60.33;;;;;0.88;46.36;101567.91;6313998;20;2889921;-47
2022/03/22 00:09:52;;;;;;;;;82.33;60.00;;;;;1.16;45.76;101567.22;6311434;20;3657599;-50
2022/03/22 00:12:22;;;;;;;;;77.00;59.67;;;;;1.23;45.78;101567.28;6312703;20;3636688;-47
2022/03/22 00:14:52;;;;;;;;;84.00;62.00;;;;;1.45;45.45;101562.13;6312857;20;3653474;-47
2022/03/22 00:17:41;;;;;;;;;84.33;63.33;;;;;1.10;47.11;101563.66;6310517;20;2888798;-47
2022/03/22 00:20:12;;;;;;;;;84.00;61.33;;;;;1.21;46.63;101561.13;6311360;20;3642962;-46
2022/03/22 00:22:41;;;;;;;;;77.50;60.50;;;;;1.06;47.14;101561.00;6314005;20;2874208;-46
2022/03/22 00:25:10;;;;;;;;;75.50;59.00;;;;;1.52;45.53;101559.53;6275946;20;2500252;-48
2022/03/22 00:27:52;;;;;;;;;79.67;59.33;;;;;1.52;45.31;101554.25;6280755;20;2894297;-46
2022/03/22 00:30:33;;;;;;;;;80.00;59.50;;;;;1.14;46.83;101564.59;6309887;20;2894123;-45
2022/03/22 00:33:06;;;;;;;;;82.00;60.00;;;;;1.31;46.92;101567.34;6311421;20;2895304;-51
2022/03/22 00:35:39;;;;;;;;;76.00;59.50;;;;;1.23;46.78;101571.69;6312474;20;2874193;-49
2022/03/22 00:38:16;;;;;;;;;83.50;62.00;;;;;1.22;46.41;101569.94;6275325;20;2500297;-50
2022/03/22 00:40:47;;;;;;;;;81.00;60.67;;;;;1.64;44.96;101556.09;6277185;20;3639927;-51
2022/03/22 00:43:16;;;;;;;;;85.33;60.00;;;;;1.15;46.18;101562.81;6310382;20;3669561;-49
2022/03/22 00:45:48;;;;;;;;;81.00;60.00;;;;;0.73;47.45;101562.50;6313135;20;2892004;-48
2022/03/22 00:48:16;;;;;;;;;77.00;59.00;;;;;0.84;47.70;101562.56;6310030;20;2500865;-49
2022/03/22 00:50:48;;;;;;;;;83.67;62.00;;;;;0.69;48.23;101559.81;6278413;20;2888215;-52
2022/03/22 00:53:18;;;;;;;;;77.00;59.00;;;;;1.15;46.51;101552.25;6306192;20;2500382;-48
2022/03/22 00:55:49;;;;;;;;;80.67;60.00;;;;;1.19;46.53;101559.34;6280473;20;2882590;-51
2022/03/22 00:58:19;;;;;;;;;84.00;60.33;;;;;1.12;46.56;101560.16;6311622;20;2893196;-46
2022/03/22 01:00:48;;;;;;;;;74.00;59.00;;;;;1.08;46.72;101560.16;6306194;20;2500382;-47
2022/03/22 01:03:18;;;;;;;;;80.33;57.33;;;;;0.76;47.55;101553.69;6278449;20;3654428;-47
2022/03/22 01:05:50;;;;;;;;;78.67;59.67;;;;;0.93;48.26;101564.44;6312701;20;3648180;-45
2022/03/22 01:08:19;;;;;;;;;76.50;60.50;;;;;0.91;48.07;101556.47;6309030;20;2869122;-47
2022/03/22 01:10:52;;;;;;;;;79.67;56.67;;;;;0.70;48.08;101559.81;6276154;20;2889991;-46
2022/03/22 01:13:25;;;;;;;;;15.50;5.00;;;;;1.03;47.48;101551.28;6309327;20;2784622;-50
2022/03/22 01:15:55;;;;;;;;;79.67;59.33;;;;;0.88;48.26;101553.81;6307406;20;2899250;-49
2022/03/22 01:18:25;;;;;;;;;71.00;54.50;;;;;0.58;48.23;101555.31;6308732;20;2872122;-51
2022/03/22 01:20:53;;;;;;;;;72.00;58.00;;;;;1.02;47.89;101548.63;6277554;20;2500259;-47
2022/03/22 01:23:23;;;;;;;;;72.50;57.00;;;;;0.85;48.18;101556.44;6278877;20;2868042;-46
2022/03/22 01:25:52;;;;;;;;;73.50;56.00;;;;;0.84;48.15;101550.28;6282100;20;2500254;-46
2022/03/22 01:28:21;;;;;;;;;63.00;48.50;;;;;0.83;49.09;101558.19;6285257;20;2863808;-46
2022/03/22 01:30:50;;;;;;;;;73.33;54.67;;;;;0.79;48.14;101557.28;6280697;20;2885145;-49
2022/03/22 01:33:19;;;;;;;;;71.00;53.67;;;;;0.86;47.52;101552.91;6313502;20;2887933;-47
2022/03/22 01:35:49;;;;;;;;;83.00;59.00;;;;;0.80;48.43;101552.88;6316611;20;3660676;-46
2022/03/22 01:38:18;;;;;;;;;75.50;59.50;;;;;0.44;49.43;101549.00;6313707;20;2866954;-42
2022/03/22 01:40:47;;;;;;;;;76.50;59.00;;;;;0.38;49.72;101546.31;6284536;20;2873249;-43
2022/03/22 01:43:15;;;;;;;;;73.00;56.00;;;;;0.69;48.80;101549.25;6281203;20;2871084;-42
2022/03/22 01:45:49;;;;;;;;;80.33;59.00;;;;;0.48;49.07;101548.19;6283996;20;2882595;-49
2022/03/22 01:48:19;;;;;;;;;77.00;55.67;;;;;0.42;50.01;101543.72;6315514;20;2884681;-49
2022/03/22 01:50:47;;;;;;;;;53.67;40.33;;;;;0.19;50.14;101548.75;6312446;20;3571126;-54
2022/03/22 01:53:16;;;;;;;;;69.00;55.50;;;;;0.20;49.44;101541.72;6308062;20;2500254;-54
2022/03/22 01:55:44;;;;;;;;;72.00;54.00;;;;;0.41;48.61;101538.41;6279625;20;2497152;-49
2022/03/22 01:58:14;;;;;;;;;66.00;53.00;;;;;0.40;48.25;101540.16;6282418;20;2500270;-52
2022/03/22 02:00:42;;;;;;;;;73.00;56.00;;;;;0.24;49.50;101534.69;6277184;20;2500368;-49
2022/03/22 02:06:00;;;;;;;;;66.00;52.00;;;;;0.28;50.16;101531.22;6279822;20;2500323;-52
2022/03/22 02:08:32;;;;;;;;;65.00;51.00;;;;;0.39;49.72;101529.56;6280065;20;2500377;-54
2022/03/22 02:11:01;;;;;;;;;75.00;56.50;;;;;0.31;49.36;101529.50;6281473;20;2500523;-52
2022/03/22 02:13:31;;;;;;;;;71.00;51.00;;;;;0.21;50.40;101530.25;6284448;20;2885729;-53
2022/03/22 02:16:02;;;;;;;;;71.67;55.67;;;;;0.47;49.76;101527.88;6280176;20;3624308;-52
2022/03/22 02:18:32;;;;;;;;;72.00;54.50;;;;;0.28;49.59;101521.53;6315197;20;2877333;-52
2022/03/22 02:21:02;;;;;;;;;78.00;58.50;;;;;0.13;50.20;101518.75;6282727;20;2878370;-49
2022/03/22 02:23:55;;;;;;;;;73.00;55.00;;;;;0.09;50.74;101525.75;6283067;20;2879413;-52
2022/03/22 02:26:26;;;;;;;;;74.00;59.00;;;;;-0.06;51.23;101518.53;6315636;20;2745052;-49
2022/03/22 02:28:55;;;;;;;;;70.50;54.00;;;;;-0.32;52.40;101528.78;6315852;20;2871085;-51
2022/03/22 02:31:29;;;;;;;;;72.00;57.00;;;;;-0.18;52.48;101525.44;6281606;20;2499249;-53
2022/03/22 02:33:57;;;;;;;;;70.50;53.00;;;;;0.27;50.73;101532.13;6278966;20;2500282;-48
2022/03/22 02:36:25;;;;;;;;;69.50;50.50;;;;;0.18;50.40;101527.59;6278347;20;2487740;-53
2022/03/22 02:38:54;;;;;;;;;71.50;54.00;;;;;0.20;50.52;101525.88;6280875;20;2499211;-51
2022/03/22 02:41:25;;;;;;;;;58.50;49.00;;;;;0.34;49.65;101526.00;6284087;20;2857529;-49
2022/03/22 02:43:55;;;;;;;;;76.50;50.50;;;;;0.30;49.84;101518.94;6284411;20;2880454;-51
2022/03/22 02:46:24;;;;;;;;;72.50;53.50;;;;;0.30;49.58;101521.56;6282751;20;2876408;-47
2022/03/22 02:48:54;;;;;;;;;72.50;52.00;;;;;0.30;49.70;101524.22;6281055;20;2884652;-47
2022/03/22 02:51:24;;;;;;;;;66.50;50.50;;;;;0.16;50.12;101527.59;6283591;20;3621089;-46
2022/03/22 02:53:51;;;;;;;;;64.00;47.00;;;;;0.26;50.03;101528.56;6317433;20;2495138;-49
2022/03/22 02:56:19;;;;;;;;;63.50;49.50;;;;;0.28;49.56;101520.66;6281832;20;2500275;-51
2022/03/22 02:58:48;;;;;;;;;63.00;49.00;;;;;0.36;49.33;101526.91;6283289;20;2862979;-48
2022/03/22 03:01:17;;;;;;;;;60.50;48.00;;;;;0.16;50.06;101527.59;6282526;20;2873267;-47
2022/03/22 03:03:46;;;;;;;;;56.00;46.50;;;;;0.29;50.07;101535.63;6282259;20;2857680;-46
2022/03/22 03:06:15;;;;;;;;;55.00;46.00;;;;;0.23;49.18;101536.47;6280965;20;2875350;-47
2022/03/22 03:08:44;;;;;;;;;62.00;46.00;;;;;-0.15;50.54;101531.66;6283153;20;2880591;-48
2022/03/22 03:11:13;;;;;;;;;68.33;56.33;;;;;0.20;50.10;101528.50;6283866;20;3605537;-50
2022/03/22 03:16:28;;;;;;;;;70.00;55.00;;;;;-0.10;50.61;101537.00;6276644;20;2500348;-48
2022/03/22 03:18:56;;;;;;;;;72.50;52.50;;;;;-0.01;50.81;101534.44;6280379;20;2498184;-45
2022/03/22 03:21:25;;;;;;;;;61.67;46.67;;;;;0.10;49.88;101532.78;6283196;20;3601358;-46
2022/03/22 03:23:53;;;;;;;;;63.00;50.50;;;;;0.27;49.86;101540.03;6279110;20;2500267;-46
2022/03/22 03:26:21;;;;;;;;;43.00;36.00;;;;;0.11;50.06;101544.28;6279793;20;2506603;-46
2022/03/22 03:28:49;;;;;;;;;63.00;45.00;;;;;0.06;50.25;101540.69;6283282;20;2870133;-47
2022/03/22 03:31:17;;;;;;;;;51.00;42.00;;;;;0.21;48.94;101543.47;6280731;20;2849218;-46
2022/03/22 03:33:45;;;;;;;;;61.00;47.50;;;;;0.21;49.29;101544.38;6276971;20;2508581;-47
2022/03/22 03:36:14;;;;;;;;;48.67;39.00;;;;;0.01;49.95;101537.09;6284062;20;2875405;-45
2022/03/22 03:38:42;;;;;;;;;28.00;22.00;;;;;-0.09;50.26;101539.63;6310605;20;2833576;-44
2022/03/22 03:47:03;;;;;;;;;45.00;35.00;;;;;-0.22;50.94;101545.63;6283204;20;2866943;-45
2022/03/22 03:47:04;;;;;;;;;54.50;45.50;;;;;-0.45;52.27;101547.97;6281835;20;2864898;-44
2022/03/22 03:49:47;;;;;;;;;47.00;43.00;;;;;-0.34;51.64;101543.72;6277755;20;2508600;-45
2022/03/22 03:52:30;;;;;;;;;62.67;44.33;;;;;-0.20;50.78;101545.66;6282670;20;3634631;-44
2022/03/22 03:55:00;;;;;;;;;51.00;38.50;;;;;-0.49;51.61;101540.88;6307113;20;2500280;-45
2022/03/22 03:57:29;;;;;;;;;51.50;46.50;;;;;-0.65;52.41;101544.19;6280560;20;2844055;-45
2022/03/22 03:59:57;;;;;;;;;64.00;46.50;;;;;-0.19;51.33;101540.38;6274341;20;2491990;-45
2022/03/22 04:02:27;;;;;;;;;54.67;42.33;;;;;-0.16;51.22;101550.09;6282912;20;2876400;-45
2022/03/22 04:04:55;;;;;;;;;64.00;47.00;;;;;-0.36;51.35;101548.09;6307417;20;2508677;-45
2022/03/22 04:07:26;;;;;;;;;62.50;47.00;;;;;-0.28;51.62;101545.56;6283243;20;2854443;-44
2022/03/22 04:09:56;;;;;;;;;64.00;45.50;;;;;-0.07;50.24;101552.84;6280844;20;2886736;-45
2022/03/22 04:12:26;;;;;;;;;66.00;45.67;;;;;-0.30;51.42;101548.16;6279837;20;2887746;-46
2022/03/22 04:14:55;;;;;;;;;53.50;41.50;;;;;-0.45;51.75;101542.69;6314648;20;2878364;-46
2022/03/22 04:17:24;;;;;;;;;51.00;45.00;;;;;-0.32;51.58;101549.88;6280348;20;2873182;-44
2022/03/22 04:19:52;;;;;;;;;54.00;45.00;;;;;0.04;50.19;101551.22;6279286;20;2508673;-45
2022/03/22 04:22:22;;;;;;;;;58.00;46.00;;;;;0.29;49.24;101549.75;6282864;20;2867117;-51
2022/03/22 04:24:51;;;;;;;;;64.67;46.00;;;;;0.42;49.49;101549.00;6283585;20;2864611;-53
2022/03/22 04:32:57;;;;;;;;;63.00;50.00;;;;;-0.18;50.57;101557.13;6310751;20;2498195;-55
2022/03/22 04:35:27;;;;;;;;;60.50;47.50;;;;;-0.25;51.10;101562.31;6277856;20;2493993;-55
2022/03/22 04:37:57;;;;;;;;;65.50;51.00;;;;;-0.30;52.08;101560.47;6276604;20;2492020;-54
2022/03/22 04:40:26;;;;;;;;;68.00;50.50;;;;;-0.36;51.72;101563.94;6276380;20;2521173;-51
2022/03/22 04:42:54;;;;;;;;;59.00;49.00;;;;;-0.03;50.13;101563.47;6273979;20;2497734;-54
2022/03/22 04:45:22;;;;;;;;;69.00;52.50;;;;;0.10;50.23;101563.59;6282150;20;2869138;-53
2022/03/22 04:47:51;;;;;;;;;71.00;51.50;;;;;-0.13;51.39;101561.59;6280239;20;2876324;-51
2022/03/22 04:50:19;;;;;;;;;65.00;48.50;;;;;-0.06;50.88;101563.41;6276431;20;2495264;-51
2022/03/22 04:58:22;;;;;;;;;70.00;51.00;;;;;-0.04;50.69;101571.38;6282238;20;2489859;-52
2022/03/22 05:00:50;;;;;;;;;67.00;50.00;;;;;0.20;50.35;101576.94;6322235;20;2500303;-52
2022/03/22 05:03:18;;;;;;;;;68.00;51.00;;;;;0.20;50.00;101576.03;6287083;20;2500366;-53
2022/03/22 05:08:34;;;;;;;;;74.00;58.00;;;;;0.40;49.41;101578.91;6289069;20;2500408;-45
2022/03/22 05:11:02;;;;;;;;;69.00;55.00;;;;;0.18;49.99;101572.50;6288944;20;2500244;-46
2022/03/22 05:13:30;;;;;;;;;74.50;57.50;;;;;0.45;49.89;101577.22;6285437;20;2500281;-45
2022/03/22 05:15:58;;;;;;;;;68.00;55.00;;;;;0.48;50.17;101581.66;6289059;20;2500257;-46
2022/03/22 05:18:27;;;;;;;;;77.50;60.50;;;;;0.55;49.10;101584.34;6290662;20;2883824;-47
2022/03/22 05:20:56;;;;;;;;;84.67;62.67;;;;;0.67;49.65;101588.00;6291247;20;2901400;-44
2022/03/22 05:23:25;;;;;;;;;74.00;59.00;;;;;1.06;48.82;101585.69;6320252;20;2864864;-44
2022/03/22 05:25:53;;;;;;;;;74.00;58.00;;;;;0.85;48.52;101590.81;6288638;20;2500258;-45
2022/03/22 05:28:22;;;;;;;;;71.00;56.00;;;;;1.19;47.74;101589.31;6291040;20;2856620;-45
2022/03/22 05:30:51;;;;;;;;;78.50;60.50;;;;;1.46;48.07;101591.28;6288611;20;2882561;-44
2022/03/22 05:33:19;;;;;;;;;78.00;60.00;;;;;1.79;46.95;101584.41;6291879;20;2871140;-47
2022/03/22 05:35:49;;;;;;;;;81.33;60.33;;;;;1.60;48.51;101587.81;6292220;20;2888901;-46
2022/03/22 05:38:19;;;;;;;;;94.67;67.33;;;;;1.44;49.00;101585.06;6320079;20;3652320;-46
2022/03/22 05:40:49;;;;;;;;;101.00;74.00;;;;;1.47;48.82;101592.16;6318605;20;3678476;-44
2022/03/22 05:43:20;;;;;;;;;99.33;74.33;;;;;1.69;48.26;101593.19;6288926;20;3667061;-47
2022/03/22 05:45:49;;;;;;;;;105.00;79.00;;;;;1.93;47.51;101590.66;6289273;20;3684764;-44
2022/03/22 05:48:21;;;;;;;;;103.00;78.00;;;;;2.46;46.65;101597.00;6292024;20;3683736;-45
2022/03/22 05:50:54;;;;;;;;;97.33;71.00;;;;;2.77;45.99;101597.97;6286776;20;3652281;-44
2022/03/22 05:53:24;;;;;;;;;91.33;62.67;;;;;2.53;46.23;101597.94;6322922;20;3669156;-44
2022/03/22 05:55:54;;;;;;;;;75.33;58.00;;;;;2.93;44.90;101597.97;6288918;20;3622093;-44
2022/03/22 05:58:24;;;;;;;;;80.00;56.00;;;;;3.17;44.51;101597.09;6321131;20;3650236;-45
2022/03/22 06:00:53;;;;;;;;;76.33;60.00;;;;;3.65;42.86;101595.25;6322795;20;2881531;-46
2022/03/22 06:03:23;;;;;;;;;76.67;58.00;;;;;4.57;40.56;101605.50;6319758;20;2889978;-45
2022/03/22 06:05:53;;;;;;;;;103.67;90.67;;;;;4.97;39.08;101603.44;6321081;20;3682547;-47
2022/03/22 06:08:23;;;;;;;;;127.00;107.50;;;;;5.54;38.34;101608.28;6290204;20;3751451;-44
2022/03/22 06:10:53;;;;;;;;;118.00;98.33;;;;;5.88;37.32;101614.13;6313889;20;3706498;-50
2022/03/22 06:13:23;;;;;;;;;97.67;85.00;;;;;6.44;36.34;101619.72;6282784;20;3667962;-50
2022/03/22 06:15:53;;;;;;;;;92.33;70.67;;;;;6.49;36.45;101619.66;6282675;20;3670053;-49
2022/03/22 06:18:22;;;;;;;;;91.67;72.33;;;;;6.30;36.44;101617.22;6282460;20;3675254;-46
2022/03/22 06:20:52;;;;;;;;;87.33;69.33;;;;;7.29;35.64;101619.31;6283863;20;3664924;-45
2022/03/22 06:23:23;;;;;;;;;85.33;71.67;;;;;8.90;33.11;101624.13;6282014;20;3648172;-45
2022/03/22 06:25:52;;;;;;;;;60.33;47.33;;;;;10.11;30.57;101625.47;6282716;20;2900407;-42
2022/03/22 06:28:21;;;;;;;;;57.00;45.00;;;;;10.19;30.49;101623.44;6315499;20;2857701;-44
2022/03/22 06:30:51;;;;;;;;;53.00;43.50;;;;;8.59;31.87;101621.28;6281881;20;2842995;-47
2022/03/22 06:33:22;;;;;;;;;55.33;43.67;;;;;7.77;33.38;101615.81;6285924;20;2870461;-48
2022/03/22 06:35:53;;;;;;;;;56.67;44.67;;;;;7.52;33.50;101610.91;6313338;20;2864057;-45
2022/03/22 06:38:22;;;;;;;;;55.00;40.00;;;;;7.26;34.28;101612.22;6315020;20;2861860;-45
2022/03/22 06:40:50;;;;;;;;;54.00;42.00;;;;;7.60;33.87;101616.97;6281805;20;2862874;-47
2022/03/22 06:43:21;;;;;;;;;54.50;44.00;;;;;7.39;33.99;101612.91;6282162;20;2867958;-46
2022/03/22 06:45:50;;;;;;;;;58.00;45.33;;;;;7.35;34.34;101621.03;6281747;20;2869098;-45
2022/03/22 06:48:19;;;;;;;;;48.50;41.50;;;;;7.64;34.93;101624.03;6315735;20;2867122;-44
2022/03/22 06:50:50;;;;;;;;;52.33;41.00;;;;;7.76;34.77;101622.03;6282389;20;2872221;-45
2022/03/22 06:53:20;;;;;;;;;64.50;50.50;;;;;8.25;33.73;101621.97;6314375;20;2865038;-45
2022/03/22 06:55:51;;;;;;;;;54.67;39.67;;;;;8.46;34.00;101620.66;6283995;20;3642046;-45
2022/03/22 06:58:22;;;;;;;;;49.50;41.50;;;;;8.83;33.73;101625.19;6315262;20;2849286;-45
2022/03/22 07:00:55;;;;;;;;;61.33;46.00;;;;;8.83;34.00;101625.19;6280746;20;2882694;-45
2022/03/22 07:03:25;;;;;;;;;58.67;43.00;;;;;9.23;33.24;101624.22;6315773;20;3623126;-47
2022/03/22 07:05:55;;;;;;;;;23.00;14.67;;;;;9.74;32.72;101625.59;6313998;20;3566908;-45
2022/03/22 07:08:25;;;;;;;;;66.67;54.67;;;;;10.10;33.02;101626.38;6315480;20;2877485;-49
2022/03/22 07:13:41;;;;;;;;;47.00;40.50;;;;;9.63;32.38;101629.44;6316070;20;2857618;-54
2022/03/22 07:16:10;;;;;;;;;59.50;46.50;;;;;10.24;32.02;101629.56;6284472;20;2865901;-54
2022/03/22 07:18:39;;;;;;;;;45.00;41.00;;;;;10.97;31.59;101636.34;6284266;20;2857645;-52
2022/03/22 07:21:09;;;;;;;;;52.67;43.00;;;;;12.47;29.01;101639.19;6284761;20;2855021;-52
2022/03/22 07:23:39;;;;;;;;;52.33;42.67;;;;;13.54;28.07;101633.13;6314337;20;2866123;-51
2022/03/22 07:26:09;;;;;;;;;63.00;49.33;;;;;12.81;28.90;101643.25;6311731;20;3631529;-52
2022/03/22 07:28:38;;;;;;;;;55.67;43.67;;;;;12.63;29.02;101636.75;6314520;20;2863935;-53
2022/03/22 07:31:07;;;;;;;;;46.50;40.00;;;;;11.90;28.65;101637.72;6315716;20;2847197;-53
2022/03/22 07:33:37;;;;;;;;;49.33;38.33;;;;;11.82;29.82;101628.97;6282728;20;2856622;-51
2022/03/22 07:36:07;;;;;;;;;56.00;43.67;;;;;12.03;30.24;101630.97;6315280;20;2863852;-53
2022/03/22 07:38:36;;;;;;;;;51.00;39.50;;;;;11.97;30.77;101639.25;6314569;20;2850247;-45
2022/03/22 07:41:07;;;;;;;;;57.50;46.50;;;;;12.15;28.35;101632.31;6281143;20;2864846;-48
2022/03/22 07:43:37;;;;;;;;;51.00;41.50;;;;;12.01;28.12;101630.13;6280859;20;2851322;-45
2022/03/22 07:46:07;;;;;;;;;57.00;46.33;;;;;12.57;27.84;101639.72;6283636;20;2868978;-44
2022/03/22 07:48:36;;;;;;;;;48.67;37.00;;;;;11.77;28.11;101639.03;6315342;20;3616988;-44
2022/03/22 07:53:53;;;;;;;;;53.00;44.00;;;;;12.33;27.72;101628.06;6312922;20;2846232;-47
2022/03/22 07:56:24;;;;;;;;;57.86;48.14;;;;;12.20;27.36;101637.53;6298339;20;2538806;-48
2022/03/22 07:58:54;;;;;;;;;52.33;39.33;;;;;12.20;27.70;101629.44;6313400;20;2869119;-45
2022/03/22 08:01:27;;;;;;;;;60.33;46.67;;;;;12.59;27.49;101631.59;6308650;20;3617940;-44
2022/03/22 08:03:56;;;;;;;;;48.50;39.00;;;;;12.64;27.22;101634.97;6312484;20;2848605;-44
2022/03/22 08:06:25;;;;;;;;;51.67;39.00;;;;;12.22;27.21;101632.97;6281895;20;2866941;-47
2022/03/22 08:08:55;;;;;;;;;48.67;41.67;;;;;13.22;27.22;101637.13;6314591;20;3623136;-44
2022/03/22 08:11:24;;;;;;;;;60.00;47.67;;;;;12.48;27.37;101635.56;6319776;20;3607581;-44
2022/03/22 08:13:53;;;;;;;;;58.33;44.67;;;;;12.91;27.20;101630.31;6285939;20;2877354;-46
2022/03/22 08:16:22;;;;;;;;;55.50;44.00;;;;;12.74;27.18;101623.78;6314518;20;2850495;-43
2022/03/22 08:18:52;;;;;;;;;53.00;43.00;;;;;13.14;26.41;101626.69;6284376;20;2853453;-44
2022/03/22 08:21:22;;;;;;;;;54.00;39.00;;;;;12.99;26.35;101625.47;6313426;20;3612799;-43
2022/03/22 08:23:51;;;;;;;;;62.33;49.00;;;;;13.67;26.36;101626.25;6317580;20;3618972;-44
2022/03/22 08:26:20;;;;;;;;;49.67;43.00;;;;;13.97;25.66;101621.31;6284919;20;3615874;-43
2022/03/22 08:28:49;;;;;;;;;71.50;56.00;;;;;14.06;25.27;101620.06;6311817;20;1934647;-43
2022/03/22 08:31:18;;;;;;;;;43.33;35.00;;;;;13.23;25.96;101614.63;6288740;20;3597117;-45
2022/03/22 08:33:48;;;;;;;;;38.33;33.33;;;;;13.25;26.68;101631.63;6283085;20;2863829;-44
2022/03/22 08:36:17;;;;;;;;;52.33;42.00;;;;;13.11;26.84;101627.69;6316977;20;2864914;-44
2022/03/22 08:38:49;;;;;;;;;56.00;45.67;;;;;14.00;25.99;101629.28;6314669;20;3615842;-45
2022/03/22 08:41:18;;;;;;;;;52.67;41.33;;;;;13.96;26.19;101624.09;6314400;20;2873280;-45
2022/03/22 08:43:48;;;;;;;;;57.33;43.00;;;;;13.88;26.20;101623.56;6313418;20;3608555;-43
2022/03/22 08:46:20;;;;;;;;;51.67;39.67;;;;;13.96;26.67;101621.41;6313828;20;3612705;-45
2022/03/22 08:48:54;;;;;;;;;45.67;36.00;;;;;13.53;27.29;101620.56;6313666;20;3619049;-43
2022/03/22 08:51:26;;;;;;;;;31.00;28.33;;;;;14.30;26.25;101628.84;6320456;20;3579456;-44
2022/03/22 08:53:55;;;;;;;;;52.67;42.33;;;;;14.40;25.69;101621.19;6319564;20;3607522;-44
2022/03/22 08:56:25;;;;;;;;;50.00;39.00;;;;;14.81;25.47;101612.97;6281738;20;2878506;-45
2022/03/22 08:58:54;;;;;;;;;61.00;47.00;;;;;14.84;25.43;101615.53;6318956;20;3619026;-43
2022/03/22 09:01:27;;;;;;;;;55.33;46.33;;;;;15.04;25.43;101615.44;6282252;20;3619004;-44
2022/03/22 09:06:44;;;;;;;;;56.67;44.33;;;;;14.68;24.88;101605.44;6285127;20;2859729;-45
2022/03/22 09:09:14;;;;;;;;;52.00;42.67;;;;;15.30;24.85;101605.16;6313895;20;3600239;-47
2022/03/22 09:11:43;;;;;;;;;56.00;45.00;;;;;14.82;24.67;101612.88;6315939;20;3602313;-44
2022/03/22 09:14:12;;;;;;;;;61.67;49.00;;;;;15.36;24.47;101607.53;6282841;20;3624218;-47
2022/03/22 09:16:42;;;;;;;;;48.67;40.33;;;;;14.55;24.91;101607.00;6313361;20;2869189;-47
2022/03/22 09:19:12;;;;;;;;;48.67;39.00;;;;;15.36;24.72;101603.00;6311364;20;3592964;-46
2022/03/22 09:21:42;;;;;;;;;60.00;46.00;;;;;15.67;24.81;101596.00;6312250;20;3595077;-46
2022/03/22 09:24:11;;;;;;;;;51.33;43.00;;;;;15.08;25.12;101600.78;6319408;20;3592003;-46
2022/03/22 09:26:39;;;;;;;;;56.00;46.00;;;;;14.94;24.92;101595.19;6282988;20;2852330;-47
2022/03/22 09:29:09;;;;;;;;;59.00;47.67;;;;;14.88;24.98;101592.81;6283452;20;3604426;-48
2022/03/22 09:31:40;;;;;;;;;49.00;41.67;;;;;15.49;24.69;101589.72;6312581;20;2853471;-50
2022/03/22 09:34:11;;;;;;;;;37.50;29.50;;;;;15.27;24.95;101583.63;6314006;20;2847144;-47
2022/03/22 09:36:41;;;;;;;;;47.00;39.33;;;;;15.35;24.76;101597.69;6285079;20;2849430;-45
2022/03/22 09:39:10;;;;;;;;;53.33;42.33;;;;;15.41;24.45;101591.94;6315476;20;3604499;-49
2022/03/22 09:41:40;;;;;;;;;47.50;41.00;;;;;16.14;24.15;101586.31;6282583;20;2840989;-46
2022/03/22 09:44:11;;;;;;;;;49.33;42.00;;;;;16.10;24.09;101585.63;6280880;20;2850754;-47
2022/03/22 09:46:50;;;;;;;;;49.67;42.33;;;;;15.57;23.92;101587.47;6321439;20;3596062;-48
2022/03/22 09:49:19;;;;;;;;;58.33;44.67;;;;;16.17;24.23;101583.47;6286576;20;3626267;-50
2022/03/22 09:51:48;;;;;;;;;49.00;40.00;;;;;16.14;23.95;101580.91;6322615;20;3558569;-53
2022/03/22 09:54:24;;;;;;;;;51.00;41.00;;;;;15.89;23.60;101575.94;6321297;20;3600224;-54
2022/03/22 09:56:54;;;;;;;;;56.67;46.67;;;;;16.12;24.08;101569.28;6288136;20;3622127;-52
2022/03/22 09:59:23;;;;;;;;;60.33;48.33;;;;;16.72;23.61;101566.81;6319426;20;2863913;-52
2022/03/22 10:01:53;;;;;;;;;45.33;36.00;;;;;16.63;23.36;101560.06;6321690;20;3626389;-52
2022/03/22 10:04:22;;;;;;;;;52.67;44.00;;;;;16.41;23.84;101560.41;6290670;20;3610804;-53
2022/03/22 10:06:54;;;;;;;;;52.67;41.67;;;;;16.95;22.87;101551.94;6288222;20;2855553;-51
2022/03/22 10:09:33;;;;;;;;;35.67;31.67;;;;;16.72;23.03;101558.69;6318192;20;3602338;-52
2022/03/22 10:12:10;;;;;;;;;44.33;37.00;;;;;17.30;23.06;101557.16;6287627;20;2844049;-51
2022/03/22 10:14:41;;;;;;;;;46.00;39.00;;;;;16.95;22.72;101546.50;6324275;20;3583549;-52
2022/03/22 10:17:20;;;;;;;;;51.00;41.33;;;;;16.62;22.85;101543.91;6285861;20;2847280;-52
2022/03/22 10:19:51;;;;;;;;;43.33;36.67;;;;;16.77;23.17;101545.78;6321484;20;3604387;-48
2022/03/22 10:22:27;;;;;;;;;50.33;40.00;;;;;17.27;23.17;101544.63;6284081;20;3597115;-51
2022/03/22 10:25:04;;;;;;;;;46.25;36.75;;;;;16.46;23.03;101533.91;6324377;20;3622193;-48
2022/03/22 10:27:37;;;;;;;;;46.33;36.33;;;;;16.66;22.79;101542.75;6319786;20;3621099;-48
2022/03/22 10:30:27;;;;;;;;;50.67;39.00;;;;;16.59;22.71;101535.94;6320706;20;3597110;-49
2022/03/22 10:32:57;;;;;;;;;41.67;32.67;;;;;17.24;22.22;101535.78;6287428;20;3601673;-49
2022/03/22 10:35:35;;;;;;;;;19.00;16.67;;;;;17.15;22.43;101536.34;6285468;20;3550221;-49
2022/03/22 10:38:10;;;;;;;;;43.00;37.00;;;;;16.66;22.47;101531.91;6320208;20;3596093;-51
2022/03/22 10:40:47;;;;;;;;;44.50;37.00;;;;;16.91;22.65;101525.09;6286810;20;2855479;-49
2022/03/22 10:43:23;;;;;;;;;44.00;36.67;;;;;17.21;22.13;101531.41;6284121;20;2864999;-47
2022/03/22 10:46:00;;;;;;;;;40.00;33.00;;;;;17.67;21.80;101515.03;6321535;20;3605473;-49
2022/03/22 10:48:36;;;;;;;;;33.67;29.33;;;;;17.41;21.46;101515.78;6291125;20;3597241;-49
2022/03/22 10:51:06;;;;;;;;;22.00;22.00;;;;;17.46;22.11;101513.66;6290921;20;3598179;-48
2022/03/22 10:53:36;;;;;;;;;29.33;28.67;;;;;17.25;21.50;101505.84;6291979;20;3586718;-46
2022/03/22 10:56:05;;;;;;;;;29.67;28.67;;;;;17.16;21.66;101503.66;6288977;20;3581499;-50
2022/03/22 10:58:35;;;;;;;;;33.50;27.50;;;;;17.60;21.62;101505.50;6289590;20;3624278;-47
2022/03/22 11:01:06;;;;;;;;;25.33;24.00;;;;;18.11;21.20;101505.94;6316682;20;3575374;-51
2022/03/22 11:03:37;;;;;;;;;29.33;29.00;;;;;18.23;21.26;101503.41;6287599;20;3573191;-47
2022/03/22 11:06:06;;;;;;;;;25.67;22.67;;;;;17.03;21.54;101499.94;6284375;20;3572099;-50
2022/03/22 11:08:37;;;;;;;;;25.67;24.67;;;;;17.47;21.30;101488.22;6282361;20;3596198;-51
2022/03/22 11:11:07;;;;;;;;;44.00;36.67;;;;;18.56;21.63;101495.78;6284560;20;3591869;-47
2022/03/22 11:13:36;;;;;;;;;30.00;25.67;;;;;17.84;20.88;101480.53;6320405;20;3597171;-48
2022/03/22 11:16:07;;;;;;;;;30.67;24.33;;;;;17.82;21.91;101487.91;6285004;20;2861797;-51
2022/03/22 11:18:37;;;;;;;;;25.67;25.67;;;;;17.47;21.87;101474.66;6316313;20;3592946;-49
2022/03/22 11:21:06;;;;;;;;;33.00;28.67;;;;;17.61;21.36;101477.38;6288339;20;3579415;-47
2022/03/22 11:23:35;;;;;;;;;21.67;21.67;;;;;18.36;21.54;101475.31;6285411;20;3586749;-45
2022/03/22 11:26:23;;;;;;;;;37.00;32.00;;;;;17.86;21.56;101465.88;6290720;20;3607546;-44
2022/03/22 11:28:53;;;;;;;;;20.50;17.50;;;;;17.80;21.85;101473.53;6285564;20;2491941;-45
2022/03/22 11:31:27;;;;;;;;;31.33;28.67;;;;;17.84;21.49;101464.22;6288328;20;3589853;-46
2022/03/22 11:34:09;;;;;;;;;27.00;26.00;;;;;18.44;21.44;101453.06;6287401;20;3585645;-45
2022/03/22 11:36:47;;;;;;;;;25.33;23.67;;;;;18.31;21.44;101455.72;6287037;20;3567978;-44
2022/03/22 11:42:24;;;;;;;;;43.25;35.00;;;;;17.93;21.90;101453.66;6318407;20;3629456;-46
2022/03/22 11:45:09;;;;;;;;;27.00;23.33;;;;;18.12;21.86;101449.75;6320614;20;3596086;-45
2022/03/22 11:47:44;;;;;;;;;23.67;23.67;;;;;18.44;21.80;101439.47;6287852;20;3584595;-45